createdAt,value
2022-11-20T00:01:18.139Z,92.38
2022-11-20T00:03:44.950Z,92.26
2022-11-20T00:06:14.964Z,92.40
2022-11-20T00:08:42.056Z,92.40
2022-11-20T00:11:15.500Z,92.31
2022-11-20T00:13:43.576Z,92.29
2022-11-20T00:16:13.704Z,92.07
2022-11-20T00:18:40.170Z,91.87
2022-11-20T00:21:09.092Z,91.83
2022-11-20T00:23:35.580Z,91.55
2022-11-20T00:26:10.431Z,91.05
2022-11-20T00:28:37.034Z,91.25
2022-11-20T00:31:03.739Z,91.34
2022-11-20T00:33:30.608Z,91.46
2022-11-20T00:36:24.276Z,91.21
2022-11-20T00:38:58.426Z,91.48
2022-11-20T00:41:26.073Z,91.72
2022-11-20T00:43:53.945Z,92.11
2022-11-20T00:46:22.828Z,92.46
2022-11-20T00:48:49.302Z,92.95
2022-11-20T00:51:18.941Z,92.83
2022-11-20T00:53:45.691Z,93.19
2022-11-20T00:56:14.235Z,93.38
2022-11-20T00:58:42.137Z,93.43
2022-11-20T01:01:14.857Z,93.40
2022-11-20T01:03:43.264Z,93.23
2022-11-20T01:06:13.750Z,93.16
2022-11-20T01:08:40.711Z,93.21
2022-11-20T01:11:10.613Z,93.66
2022-11-20T01:13:41.220Z,93.80
2022-11-20T01:16:13.091Z,93.81
2022-11-20T01:18:41.181Z,93.94
2022-11-20T01:21:11.317Z,93.99
2022-11-20T01:23:39.541Z,94.12
2022-11-20T01:26:09.162Z,94.41
2022-11-20T01:28:36.030Z,94.20
2022-11-20T01:31:02.759Z,94.48
2022-11-20T01:33:29.237Z,94.51
2022-11-20T01:36:04.858Z,94.59
2022-11-20T01:38:31.423Z,94.72
2022-11-20T01:40:57.935Z,94.48
2022-11-20T01:43:26.000Z,94.59
2022-11-20T01:46:16.109Z,94.71
2022-11-20T01:48:47.173Z,94.74
2022-11-20T01:51:25.246Z,94.52
2022-11-20T01:53:53.652Z,94.34
2022-11-20T01:56:20.144Z,94.21
2022-11-20T01:58:53.074Z,94.42
2022-11-20T02:01:19.588Z,94.52
2022-11-20T02:03:46.036Z,94.55
2022-11-20T02:06:20.715Z,94.64
2022-11-20T02:08:47.218Z,94.65
2022-11-20T02:11:13.813Z,94.67
2022-11-20T02:13:46.306Z,94.80
2022-11-20T02:16:17.350Z,94.70
2022-11-20T02:18:45.289Z,94.85
2022-11-20T02:21:41.787Z,94.89
2022-11-20T02:24:16.605Z,94.70
2022-11-20T02:26:53.323Z,94.45
2022-11-20T02:29:25.813Z,94.29
2022-11-20T02:31:52.570Z,94.67
2022-11-20T02:34:19.076Z,94.44
2022-11-20T02:36:45.586Z,94.98
2022-11-20T02:39:13.076Z,95.17
2022-11-20T02:41:40.143Z,95.09
2022-11-20T02:44:06.781Z,95.19
2022-11-20T02:46:33.816Z,95.33
2022-11-20T02:49:01.999Z,95.36
2022-11-20T02:51:28.436Z,95.42
2022-11-20T02:53:55.054Z,95.16
2022-11-20T02:56:21.530Z,95.38
2022-11-20T02:58:48.080Z,95.17
2022-11-20T03:01:14.730Z,95.33
2022-11-20T03:03:41.246Z,95.17
2022-11-20T03:06:08.619Z,95.14
2022-11-20T03:08:35.499Z,95.24
2022-11-20T03:11:07.051Z,95.17
2022-11-20T03:13:34.417Z,95.52
2022-11-20T03:16:09.044Z,95.33
2022-11-20T03:18:35.571Z,95.26
2022-11-20T03:21:01.994Z,95.04
2022-11-20T03:23:30.441Z,95.02
2022-11-20T03:25:56.862Z,95.41
2022-11-20T03:28:23.336Z,95.36
2022-11-20T03:30:49.810Z,95.28
2022-11-20T03:33:16.296Z,95.00
2022-11-20T03:35:42.686Z,95.16
2022-11-20T03:38:09.179Z,94.81
2022-11-20T03:40:36.574Z,94.84
2022-11-20T03:43:03.008Z,94.80
2022-11-20T03:45:29.462Z,94.85
2022-11-20T03:47:55.849Z,95.14
2022-11-20T03:50:22.482Z,95.01
2022-11-20T03:52:48.920Z,94.68
2022-11-20T03:55:15.355Z,94.65
2022-11-20T03:57:41.795Z,95.01
2022-11-20T04:00:08.677Z,94.99
2022-11-20T04:02:35.233Z,95.07
2022-11-20T04:05:01.662Z,95.13
2022-11-20T04:07:28.152Z,95.08
2022-11-20T04:09:54.662Z,95.02
2022-11-20T04:12:21.139Z,94.94
2022-11-20T04:14:47.607Z,94.87
2022-11-20T04:17:14.029Z,94.90
2022-11-20T04:19:40.468Z,94.81
2022-11-20T04:22:07.007Z,94.73
2022-11-20T04:24:33.479Z,94.86
2022-11-20T04:26:59.906Z,95.10
2022-11-20T04:29:26.437Z,94.60
2022-11-20T04:31:52.893Z,94.47
2022-11-20T04:34:19.423Z,94.32
2022-11-20T04:36:46.203Z,94.66
2022-11-20T04:39:14.729Z,94.31
2022-11-20T04:41:41.205Z,94.39
2022-11-20T04:44:07.992Z,94.59
2022-11-20T04:46:37.189Z,94.50
2022-11-20T04:49:04.198Z,94.60
2022-11-20T04:51:30.965Z,94.74
2022-11-20T04:53:57.476Z,94.72
2022-11-20T04:56:24.216Z,94.40
2022-11-20T04:58:51.015Z,94.45
2022-11-20T05:01:23.257Z,94.48
2022-11-20T05:03:50.064Z,94.50
2022-11-20T05:06:18.284Z,94.92
2022-11-20T05:08:44.699Z,94.86
2022-11-20T05:11:16.028Z,94.67
2022-11-20T05:13:42.879Z,94.48
2022-11-20T05:16:11.706Z,94.60
2022-11-20T05:18:39.156Z,94.74
2022-11-20T05:21:06.257Z,94.66
2022-11-20T05:23:33.168Z,94.53
2022-11-20T05:25:59.892Z,94.36
2022-11-20T05:28:27.704Z,94.24
2022-11-20T05:30:54.202Z,94.65
2022-11-20T05:33:21.145Z,94.47
2022-11-20T05:35:47.700Z,94.62
2022-11-20T05:38:14.123Z,94.54
2022-11-20T05:40:40.600Z,94.78
2022-11-20T05:43:07.074Z,94.69
2022-11-20T05:45:33.619Z,94.74
2022-11-20T05:48:01.142Z,94.66
2022-11-20T05:50:28.524Z,94.76
2022-11-20T05:53:00.481Z,94.92
2022-11-20T05:55:27.710Z,95.00
2022-11-20T05:57:55.592Z,94.97
2022-11-20T06:00:22.119Z,95.16
2022-11-20T06:02:48.602Z,94.82
2022-11-20T06:05:15.209Z,94.87
2022-11-20T06:07:41.785Z,94.98
2022-11-20T06:10:08.610Z,94.73
2022-11-20T06:12:35.055Z,94.56
2022-11-20T06:15:01.973Z,94.38
2022-11-20T06:17:28.377Z,94.60
2022-11-20T06:19:54.914Z,94.66
2022-11-20T06:22:21.383Z,94.89
2022-11-20T06:24:48.150Z,94.84
2022-11-20T06:27:14.670Z,95.01
2022-11-20T06:29:41.123Z,95.41
2022-11-20T06:32:07.579Z,95.28
2022-11-20T06:34:34.002Z,95.23
2022-11-20T06:37:00.580Z,95.27
2022-11-20T06:39:27.028Z,95.26
2022-11-20T06:41:58.505Z,95.25
2022-11-20T06:44:25.677Z,95.08
2022-11-20T06:46:52.172Z,95.15
2022-11-20T06:49:18.664Z,95.20
2022-11-20T06:51:45.297Z,95.30
2022-11-20T06:54:11.777Z,95.04
2022-11-20T06:56:38.573Z,94.91
2022-11-20T06:59:06.949Z,94.55
2022-11-20T07:01:33.478Z,94.82
2022-11-20T07:04:00.029Z,94.60
2022-11-20T07:06:26.428Z,94.64
2022-11-20T07:08:53.519Z,94.45
2022-11-20T07:11:20.005Z,94.53
2022-11-20T07:13:46.626Z,94.63
2022-11-20T07:16:13.057Z,94.74
2022-11-20T07:18:39.599Z,94.80
2022-11-20T07:21:08.525Z,94.79
2022-11-20T07:23:35.268Z,94.38
2022-11-20T07:26:09.067Z,94.24
2022-11-20T07:28:36.130Z,94.17
2022-11-20T07:31:02.814Z,94.17
2022-11-20T07:33:29.518Z,94.01
2022-11-20T07:35:55.954Z,94.07
2022-11-20T07:38:22.706Z,94.25
2022-11-20T07:40:49.870Z,94.44
2022-11-20T07:43:16.299Z,94.39
2022-11-20T07:45:42.681Z,94.42
2022-11-20T07:48:09.160Z,94.52
2022-11-20T07:50:35.546Z,94.27
2022-11-20T07:53:03.714Z,94.54
2022-11-20T07:55:30.181Z,94.32
2022-11-20T07:57:58.193Z,94.03
2022-11-20T08:00:24.845Z,93.94
2022-11-20T08:02:51.354Z,93.48
2022-11-20T08:05:17.877Z,93.64
2022-11-20T08:07:44.715Z,94.02
2022-11-20T08:10:14.571Z,94.25
2022-11-20T08:13:06.368Z,94.75
2022-11-20T08:15:33.165Z,94.74
2022-11-20T08:20:58.315Z,94.68
2022-11-20T08:23:24.711Z,94.67
2022-11-20T08:25:51.868Z,94.36
2022-11-20T08:28:21.650Z,94.28
2022-11-20T08:30:48.685Z,94.02
2022-11-20T08:33:15.422Z,94.00
2022-11-20T08:35:42.524Z,94.02
2022-11-20T08:38:09.789Z,93.79
2022-11-20T08:40:36.374Z,93.58
2022-11-20T08:43:02.917Z,93.43
2022-11-20T08:45:33.676Z,93.42
2022-11-20T08:48:01.988Z,93.33
2022-11-20T08:50:28.523Z,93.22
2022-11-20T08:52:56.065Z,93.29
2022-11-20T08:55:22.463Z,93.44
2022-11-20T08:57:50.981Z,93.20
2022-11-20T09:00:17.836Z,93.16
2022-11-20T09:02:44.268Z,93.35
2022-11-20T09:05:10.752Z,93.18
2022-11-20T09:07:37.312Z,93.42
2022-11-20T09:10:22.993Z,93.64
2022-11-20T09:12:51.474Z,93.73
2022-11-20T09:15:18.300Z,93.62
2022-11-20T09:17:59.001Z,93.77
2022-11-20T09:20:26.388Z,93.94
2022-11-20T09:22:52.850Z,93.89
2022-11-20T09:25:19.337Z,93.82
2022-11-20T09:27:46.951Z,93.77
2022-11-20T09:30:14.854Z,93.93
2022-11-20T09:32:41.534Z,93.87
2022-11-20T09:35:08.793Z,93.91
2022-11-20T09:37:35.373Z,94.08
2022-11-20T09:40:01.901Z,94.30
2022-11-20T09:42:28.302Z,94.45
2022-11-20T09:45:06.776Z,94.29
2022-11-20T09:47:45.122Z,94.51
2022-11-20T09:50:28.905Z,94.52
2022-11-20T09:53:26.353Z,94.61
2022-11-20T09:55:52.918Z,94.58
2022-11-20T09:58:41.163Z,94.84
2022-11-20T10:01:15.143Z,94.55
2022-11-20T10:04:11.882Z,94.34
2022-11-20T10:06:44.000Z,94.23
2022-11-20T10:09:13.352Z,94.58
2022-11-20T10:11:58.243Z,94.34
2022-11-20T10:14:31.155Z,94.55
2022-11-20T10:17:00.434Z,94.36
2022-11-20T10:19:37.924Z,94.63
2022-11-20T10:22:13.170Z,94.65
2022-11-20T10:24:45.498Z,94.50
2022-11-20T10:27:33.497Z,94.61
2022-11-20T10:30:17.326Z,94.66
2022-11-20T10:32:47.569Z,94.71
2022-11-20T10:35:27.584Z,94.88
2022-11-20T10:38:01.945Z,94.73
2022-11-20T10:40:42.392Z,94.72
2022-11-20T10:43:17.367Z,95.00
2022-11-20T10:45:53.089Z,95.19
2022-11-20T10:48:23.409Z,94.99
2022-11-20T10:51:04.758Z,95.07
2022-11-20T10:53:46.705Z,94.97
2022-11-20T10:56:31.772Z,95.09
2022-11-20T10:59:35.680Z,94.70
2022-11-20T11:02:03.463Z,94.69
2022-11-20T11:04:34.678Z,94.30
2022-11-20T11:07:10.554Z,93.96
2022-11-20T11:09:40.940Z,94.22
2022-11-20T11:12:09.486Z,94.58
2022-11-20T11:14:54.181Z,94.73
2022-11-20T11:17:25.043Z,94.90
2022-11-20T11:20:21.626Z,95.17
2022-11-20T11:22:50.786Z,95.03
2022-11-20T11:25:36.909Z,95.16
2022-11-20T11:28:21.349Z,95.28
2022-11-20T11:30:50.156Z,95.31
2022-11-20T11:33:28.341Z,95.46
2022-11-20T11:36:00.260Z,95.36
2022-11-20T11:38:38.851Z,95.54
2022-11-20T11:41:06.470Z,95.61
2022-11-20T11:43:53.640Z,95.63
2022-11-20T11:46:22.748Z,95.71
2022-11-20T11:49:04.234Z,95.64
2022-11-20T11:51:36.504Z,95.69
2022-11-20T11:54:11.525Z,95.53
2022-11-20T11:56:37.957Z,95.53
2022-11-20T11:59:10.612Z,95.32
2022-11-20T12:01:53.601Z,95.23
2022-11-20T12:04:45.673Z,95.19
2022-11-20T12:07:44.744Z,95.16
2022-11-20T12:10:09.205Z,95.07
2022-11-20T12:12:42.586Z,95.11
2022-11-20T12:15:13.845Z,94.79
2022-11-20T12:17:40.381Z,94.90
2022-11-20T12:20:13.632Z,94.89
2022-11-20T12:23:16.252Z,94.90
2022-11-20T12:25:46.109Z,94.97
2022-11-20T12:28:23.944Z,95.23
2022-11-20T12:31:14.934Z,94.95
2022-11-20T12:34:00.088Z,94.91
2022-11-20T12:36:49.718Z,94.90
2022-11-20T12:39:25.120Z,95.12
2022-11-20T12:42:33.229Z,95.29
2022-11-20T12:45:15.834Z,95.51
2022-11-20T12:48:15.691Z,95.51
2022-11-20T12:51:16.415Z,95.76
2022-11-20T12:53:51.933Z,95.85
2022-11-20T12:56:37.192Z,95.58
2022-11-20T12:59:29.449Z,95.27
2022-11-20T13:02:20.833Z,95.30
2022-11-20T13:04:49.951Z,95.28
2022-11-20T13:07:17.459Z,95.27
2022-11-20T13:09:49.646Z,95.13
2022-11-20T13:12:44.594Z,95.05
2022-11-20T13:15:24.883Z,94.94
2022-11-20T13:18:00.625Z,94.99
2022-11-20T13:20:27.160Z,94.85
2022-11-20T13:23:00.985Z,94.95
2022-11-20T13:25:33.135Z,95.15
2022-11-20T13:28:01.608Z,95.33
2022-11-20T13:30:29.073Z,95.27
2022-11-20T13:32:58.018Z,95.33
2022-11-20T13:35:32.228Z,95.24
2022-11-20T13:38:08.021Z,95.08
2022-11-20T13:40:37.409Z,95.28
2022-11-20T13:43:24.080Z,94.80
2022-11-20T13:46:03.312Z,94.56
2022-11-20T13:48:42.944Z,94.10
2022-11-20T13:51:12.406Z,93.96
2022-11-20T13:53:57.415Z,93.39
2022-11-20T13:56:48.997Z,93.43
2022-11-20T13:59:34.199Z,93.18
2022-11-20T14:02:01.458Z,93.08
2022-11-20T14:04:31.242Z,93.49
2022-11-20T14:06:58.243Z,93.62
2022-11-20T14:09:32.772Z,93.27
2022-11-20T14:11:59.450Z,93.59
2022-11-20T14:14:27.918Z,93.48
2022-11-20T14:17:24.162Z,93.40
2022-11-20T14:19:52.534Z,92.91
2022-11-20T14:22:21.730Z,92.51
2022-11-20T14:25:09.070Z,91.98
2022-11-20T14:27:38.328Z,91.62
2022-11-20T14:30:05.528Z,91.55
2022-11-20T14:32:32.400Z,91.53
2022-11-20T14:35:03.815Z,91.32
2022-11-20T14:37:34.428Z,90.90
2022-11-20T14:40:01.628Z,90.69
2022-11-20T14:42:29.213Z,90.79
2022-11-20T14:44:57.980Z,90.65
2022-11-20T14:47:27.009Z,91.08
2022-11-20T14:49:54.373Z,91.38
2022-11-20T14:52:25.456Z,91.69
2022-11-20T14:54:54.009Z,91.73
2022-11-20T14:57:34.302Z,91.82
2022-11-20T15:00:06.143Z,92.09
2022-11-20T15:02:32.675Z,92.46
2022-11-20T15:05:04.183Z,92.31
2022-11-20T15:07:36.382Z,92.28
2022-11-20T15:10:07.639Z,91.86
2022-11-20T15:12:40.543Z,91.75
2022-11-20T15:15:09.569Z,91.38
2022-11-20T15:17:37.878Z,91.11
2022-11-20T15:20:09.933Z,90.90
2022-11-20T15:22:36.400Z,90.72
2022-11-20T15:25:02.797Z,89.75
2022-11-20T15:27:30.002Z,89.28
2022-11-20T15:29:56.391Z,88.94
2022-11-20T15:32:22.818Z,88.92
2022-11-20T15:34:49.273Z,88.97
2022-11-20T15:37:17.440Z,88.92
2022-11-20T15:39:43.879Z,88.61
2022-11-20T15:42:10.322Z,88.11
2022-11-20T15:44:36.760Z,88.10
2022-11-20T15:47:03.251Z,87.54
2022-11-20T15:49:29.702Z,87.12
2022-11-20T15:51:56.151Z,86.81
2022-11-20T15:54:23.563Z,86.15
2022-11-20T15:56:53.134Z,86.00
2022-11-20T15:59:19.590Z,85.60
2022-11-20T16:01:46.046Z,85.93
2022-11-20T16:04:14.125Z,86.12
2022-11-20T16:06:41.097Z,86.46
2022-11-20T16:09:08.137Z,86.26
2022-11-20T16:11:37.386Z,86.24
2022-11-20T16:14:25.849Z,85.68
2022-11-20T16:16:52.725Z,85.45
2022-11-20T16:19:19.435Z,86.11
2022-11-20T16:21:45.888Z,85.80
2022-11-20T16:24:13.839Z,85.09
2022-11-20T16:26:40.909Z,86.05
2022-11-20T16:29:07.894Z,85.63
2022-11-20T16:31:34.612Z,84.99
2022-11-20T16:34:08.466Z,84.59
2022-11-20T16:36:40.347Z,84.41
2022-11-20T16:39:06.934Z,84.17
2022-11-20T16:41:34.800Z,84.01
2022-11-20T16:44:02.595Z,83.60
2022-11-20T16:46:32.718Z,84.14
2022-11-20T16:49:07.375Z,83.79
2022-11-20T16:51:37.327Z,83.76
2022-11-20T16:54:05.082Z,83.53
2022-11-20T16:56:31.626Z,82.85
2022-11-20T16:58:59.386Z,82.65
2022-11-20T17:01:28.418Z,82.75
2022-11-20T17:03:57.833Z,82.83
2022-11-20T17:06:28.406Z,83.01
2022-11-20T17:08:57.250Z,83.04
2022-11-20T17:11:24.231Z,83.59
2022-11-20T17:13:50.834Z,84.30
2022-11-20T17:16:21.789Z,84.56
2022-11-20T17:18:50.003Z,84.42
2022-11-20T17:21:17.921Z,84.48
2022-11-20T17:23:45.422Z,84.27
2022-11-20T17:26:14.619Z,84.58
2022-11-20T17:28:41.374Z,84.47
2022-11-20T17:31:10.591Z,84.60
2022-11-20T17:33:38.642Z,84.65
2022-11-20T17:36:09.601Z,84.47
2022-11-20T17:38:36.575Z,84.84
2022-11-20T17:41:14.407Z,84.96
2022-11-20T17:43:42.202Z,85.00
2022-11-20T17:46:11.506Z,85.30
2022-11-20T17:48:38.134Z,85.28
2022-11-20T17:51:06.290Z,85.26
2022-11-20T17:53:34.469Z,85.22
2022-11-20T17:56:19.561Z,85.35
2022-11-20T17:58:46.097Z,85.79
2022-11-20T18:01:12.568Z,85.79
2022-11-20T18:03:39.073Z,86.13
2022-11-20T18:06:16.751Z,86.33
2022-11-20T18:08:43.413Z,86.23
2022-11-20T18:11:21.182Z,86.26
2022-11-20T18:14:08.909Z,86.45
2022-11-20T18:16:47.186Z,86.41
2022-11-20T18:19:16.591Z,86.41
2022-11-20T18:21:43.292Z,86.64
2022-11-20T18:24:10.183Z,86.80
2022-11-20T18:26:42.801Z,87.30
2022-11-20T18:29:11.398Z,87.27
2022-11-20T18:31:38.099Z,87.27
2022-11-20T18:34:05.089Z,87.11
2022-11-20T18:36:32.535Z,86.86
2022-11-20T18:38:59.926Z,87.16
2022-11-20T18:41:47.680Z,87.31
2022-11-20T18:44:41.247Z,87.23
2022-11-20T18:47:14.532Z,86.94
2022-11-20T18:49:52.303Z,87.21
2022-11-20T18:52:23.849Z,87.25
2022-11-20T18:54:50.904Z,87.19
2022-11-20T18:57:18.794Z,87.23
2022-11-20T18:59:45.367Z,86.95
2022-11-20T19:02:17.082Z,87.42
2022-11-20T19:04:43.878Z,87.33
2022-11-20T19:07:13.905Z,87.81
2022-11-20T19:09:42.063Z,87.91
2022-11-20T19:12:09.733Z,88.50
2022-11-20T19:14:36.365Z,88.31
2022-11-20T19:17:04.061Z,88.89
2022-11-20T19:19:30.622Z,88.98
2022-11-20T19:21:57.127Z,89.54
2022-11-20T19:24:23.693Z,89.71
2022-11-20T19:26:50.162Z,90.09
2022-11-20T19:29:16.980Z,90.31
2022-11-20T19:31:43.672Z,90.48
2022-11-20T19:34:11.976Z,90.71
2022-11-20T19:36:44.592Z,90.64
2022-11-20T19:39:11.575Z,90.79
2022-11-20T19:41:39.660Z,90.87
2022-11-20T19:44:11.254Z,90.83
2022-11-20T19:46:38.687Z,91.23
2022-11-20T19:49:07.426Z,91.27
2022-11-20T19:51:34.867Z,91.32
2022-11-20T19:54:01.651Z,91.57
2022-11-20T19:56:30.315Z,91.55
2022-11-20T19:58:57.238Z,91.59
2022-11-20T20:01:26.298Z,91.14
2022-11-20T20:03:53.555Z,91.25
2022-11-20T20:06:24.991Z,90.87
2022-11-20T20:09:00.251Z,90.73
2022-11-20T20:11:28.105Z,90.54
2022-11-20T20:13:55.942Z,90.52
2022-11-20T20:16:24.803Z,90.68
2022-11-20T20:18:57.690Z,90.48
2022-11-20T20:21:24.186Z,90.47
2022-11-20T20:23:53.407Z,90.65
2022-11-20T20:26:20.873Z,90.69
2022-11-20T20:28:47.321Z,90.64
2022-11-20T20:31:16.151Z,90.68
2022-11-20T20:33:43.105Z,90.49
2022-11-20T20:36:11.114Z,90.64
2022-11-20T20:38:37.873Z,90.75
2022-11-20T20:41:04.839Z,90.77
2022-11-20T20:43:31.490Z,90.27
2022-11-20T20:45:58.118Z,90.29
2022-11-20T20:48:25.242Z,90.43
2022-11-20T20:51:00.253Z,90.47
2022-11-20T20:53:27.534Z,90.42
2022-11-20T20:55:58.375Z,90.43
2022-11-20T20:58:25.451Z,90.33
2022-11-20T21:00:52.127Z,90.22
2022-11-20T21:03:18.910Z,90.21
2022-11-20T21:05:45.752Z,90.26
2022-11-20T21:08:21.349Z,90.12
2022-11-20T21:10:52.633Z,90.03
2022-11-20T21:13:20.609Z,89.79
2022-11-20T21:15:48.984Z,89.70
2022-11-20T21:18:17.193Z,89.77
2022-11-20T21:21:03.692Z,89.79
2022-11-20T21:23:30.541Z,89.88
2022-11-20T21:25:57.040Z,90.05
2022-11-20T21:28:23.451Z,89.96
2022-11-20T21:30:49.957Z,90.45
2022-11-20T21:33:16.470Z,90.52
2022-11-20T21:35:42.899Z,90.60
2022-11-20T21:38:09.414Z,90.60
2022-11-20T21:40:35.846Z,90.61
2022-11-20T21:43:02.266Z,90.93
2022-11-20T21:45:28.675Z,90.92
2022-11-20T21:47:55.154Z,90.94
2022-11-20T21:50:22.124Z,90.73
2022-11-20T21:52:48.617Z,90.59
2022-11-20T21:55:15.011Z,90.34
2022-11-20T21:57:41.525Z,90.30
2022-11-20T22:00:08.741Z,90.21
2022-11-20T22:02:40.905Z,90.06
2022-11-20T22:05:08.113Z,89.77
2022-11-20T22:07:35.211Z,89.31
2022-11-20T22:10:01.708Z,89.21
2022-11-20T22:12:28.141Z,88.92
2022-11-20T22:14:54.573Z,88.56
2022-11-20T22:17:40.951Z,88.41
2022-11-20T22:20:08.332Z,88.19
2022-11-20T22:22:34.774Z,88.21
2022-11-20T22:25:01.228Z,88.14
2022-11-20T22:27:27.647Z,88.26
2022-11-20T22:29:54.165Z,88.11
2022-11-20T22:32:20.656Z,88.18
2022-11-20T22:34:47.105Z,88.41
2022-11-20T22:37:13.573Z,88.37
2022-11-20T22:39:40.065Z,88.05
2022-11-20T22:42:06.574Z,87.94
2022-11-20T22:44:33.016Z,88.06
2022-11-20T22:46:59.467Z,87.88
2022-11-20T22:49:25.989Z,87.94
2022-11-20T22:51:52.480Z,87.77
2022-11-20T22:54:18.942Z,87.80
2022-11-20T22:56:45.640Z,87.63
2022-11-20T22:59:12.388Z,87.85
2022-11-20T23:01:38.828Z,88.05
2022-11-20T23:04:07.997Z,88.57
2022-11-20T23:06:34.570Z,88.44
2022-11-20T23:09:01.910Z,88.74
2022-11-20T23:11:29.599Z,88.86
2022-11-20T23:13:58.179Z,88.64
2022-11-20T23:16:26.274Z,88.69
2022-11-20T23:18:57.912Z,88.80
2022-11-20T23:21:24.415Z,88.83
2022-11-20T23:23:52.808Z,88.97
2022-11-20T23:26:21.083Z,89.19
2022-11-20T23:28:47.687Z,89.03
2022-11-20T23:31:15.087Z,88.99
2022-11-20T23:33:43.837Z,88.99
2022-11-20T23:36:10.721Z,88.66
2022-11-20T23:38:37.669Z,88.69
2022-11-20T23:41:04.658Z,88.89
2022-11-20T23:43:31.306Z,89.10
2022-11-20T23:45:59.413Z,89.29
2022-11-20T23:48:28.186Z,89.54
2022-11-20T23:50:54.725Z,89.88
2022-11-20T23:53:22.049Z,90.64
2022-11-20T23:55:51.825Z,90.81
2022-11-20T23:58:18.958Z,91.37
